Portada
METAR-TAF:

METAR-TAF

Aeropuertos :

Aeropuerto de Nuuk

Nuuk, Groenlandia

latitud: 64-10N, longitud: 051-45W, altitud: 80 m

Observación

El informe se hizo hace 1 hora y 17 minutos, a las 12:50 UTC
Viento 10 kt del este-noreste
Temperatura -9°C
Humedad 62%
Presión 1005 hPa
Visibilidad 10 km o más
Escasas nubes a una altura de 20000 ft

METAR: BGGH 041250Z 07010KT 9999 FEW200 M09/M15 Q1005

Hora: 11:07 (14:07 UTC)

Pronóstico

El informe se hizo hace 3 horas y 4 minutos, a las 11:03 UTC
Pronóstico válido del 04 a las 12 UTC al 04 a las 21 UTC
Viento 8 kt del este-noreste
Visibilidad 10 km o más
Escasas nubes a una altura de 20000 ft

TAF: BGGH 041103Z 0412/0421 07008KT 9999 FEW200

Observaciones y pronósticos meteorológicos de más de 4000 aeropuertos (mensajes METAR y TAF).

Los puntos amarillos y rojos representan las estaciones disponibles.

Ponga el ratón en el punto deseado para ver el nombre de la estación.

Haga clic para ver las observaciones y los pronósticos meteorológicos.

Para cambiar el mapa : haga clic en los botones verdes con una cruz de color negro para hacer un zoom, en el botón verde con un guión para alejar o en las flechas verdes para mapas adyacentes.


METAR-TAF: